8A7 weather

Twin Lakes Airport
Mocksville, North Carolina, United States

Public forecast

Using degrees Fahrenheit for public forecast. Weather courtesy of forecast.io.

METAR (pilot weather report)

Closest report is Davidson County Airport, 11.0 nm (20.3 km) SE. Retrieved 2019/07/24 05:35 UTC (2 minutes ago):

KEXX 240535Z AUTO 00000KT 5SM BR CLR 17/17 A2995 RMK AO2 T01720172

TAF (pilot weather forecast)

Forecast is more than 12 hours old.

Closest forecast is Smith Reynolds Airport, 17.4 nm (32.2 km) NE. Retrieved 2019/07/23 00:39 UTC (1 day ago):

TAF KINT 232335Z 2400/2424 05005KT P6SM SCT070 BKN250 FM241300 03009KT P6SM SCT050